Portada
METAR-TAF:

METAR-TAF

Aeroports :

Zabol, Iran

latitud: 31-20N, longitud: 061-29E, altitud: 489 m

Observació

L'informe es va fer fa 28 minuts, a les 21:00 UTC
Vent 37 kt del Nord/Nord-Oest amb ràfegues de 51 kt
Temperatura 34°C
Humitat 12%
Pressió 994 hPa
Visibilitat: 4000 m
sorra

METAR: OIZB 272100Z 34037G51KT 4000 SA NSC 34/01 Q0994

Hora: 01:58 (21:28 UTC)


TAF: manca

Observacions i pronòstics meteorològics de més de 4000 aeroports (METAR i TAF).

Les estacions disponibles són els punts grocs i vermells al mapa.

Posi el ratolí al punt desitjat per veure el nom de l'estació.

Feu clic per veure les observacions i els pronòstics meteorològics.

Per canviar el mapa: feu clic els botons verds amb una creu de color negre per apropar; al botó verd amb un guió per allunyar la imatge; o en les fletxes verdes per a mapes adjacents.


METAR-TAF: